createdAt,value
2023-04-21T00:00:47.199Z,100277.78
2023-04-21T00:04:49.765Z,100270.84
2023-04-21T00:08:51.664Z,100277.50
2023-04-21T00:12:53.207Z,100280.88
2023-04-21T00:16:54.769Z,100276.41
2023-04-21T00:20:56.411Z,100273.75
2023-04-21T00:24:58.817Z,100268.44
2023-04-21T00:29:00.485Z,100274.03
2023-04-21T00:33:02.135Z,100269.31
2023-04-21T00:37:04.370Z,100267.34
2023-04-21T00:41:07.247Z,100264.06
2023-04-21T00:45:09.003Z,100265.63
2023-04-21T00:49:10.610Z,100263.84
2023-04-21T00:53:14.503Z,100257.75
2023-04-21T00:57:16.335Z,100262.72
2023-04-21T01:01:18.011Z,100254.81
2023-04-21T01:05:19.965Z,100254.56
2023-04-21T01:09:22.035Z,100255.31
2023-04-21T01:13:23.638Z,100256.03
2023-04-21T01:17:27.005Z,100243.97
2023-04-21T01:21:29.023Z,100242.06
2023-04-21T01:25:30.652Z,100250.53
2023-04-21T01:29:33.905Z,100252.06
2023-04-21T01:33:35.543Z,100249.50
2023-04-21T01:37:37.161Z,100242.75
2023-04-21T01:41:38.694Z,100245.06
2023-04-21T01:45:40.415Z,100243.34
2023-04-21T01:49:42.167Z,100245.78
2023-04-21T01:53:43.719Z,100249.88
2023-04-21T01:57:45.294Z,100249.63
2023-04-21T02:01:47.125Z,100252.75
2023-04-21T02:05:50.706Z,100254.94
2023-04-21T02:09:52.489Z,100263.91
2023-04-21T02:13:55.340Z,100255.59
2023-04-21T02:17:57.044Z,100261.00
2023-04-21T02:22:00.170Z,100259.09
2023-04-21T02:26:01.834Z,100261.88
2023-04-21T02:30:03.809Z,100270.88
2023-04-21T02:34:05.805Z,100265.94
2023-04-21T02:38:08.863Z,100267.63
2023-04-21T02:42:10.543Z,100275.47
2023-04-21T02:46:12.183Z,100269.63
2023-04-21T02:50:15.341Z,100271.03
2023-04-21T02:54:16.947Z,100278.41
2023-04-21T02:58:18.580Z,100280.91
2023-04-21T03:02:20.210Z,100284.31
2023-04-21T03:06:21.831Z,100292.78
2023-04-21T03:10:23.417Z,100286.44
2023-04-21T03:14:24.976Z,100283.81
2023-04-21T03:18:26.652Z,100282.97
2023-04-21T03:22:28.290Z,100286.19
2023-04-21T03:26:29.902Z,100276.59
2023-04-21T03:30:32.986Z,100268.06
2023-04-21T03:34:34.557Z,100283.72
2023-04-21T03:38:39.375Z,100267.88
2023-04-21T03:42:40.974Z,100277.50
2023-04-21T03:46:42.617Z,100270.22
2023-04-21T03:50:44.112Z,100262.28
2023-04-21T03:54:45.685Z,100271.63
2023-04-21T03:58:47.241Z,100275.84
2023-04-21T04:02:48.834Z,100272.34
2023-04-21T04:06:50.435Z,100279.56
2023-04-21T04:10:52.040Z,100269.13
2023-04-21T04:14:53.714Z,100270.69
2023-04-21T04:18:55.354Z,100268.31
2023-04-21T04:22:56.951Z,100263.13
2023-04-21T04:26:59.965Z,100255.44
2023-04-21T04:31:02.991Z,100263.00
2023-04-21T04:35:05.569Z,100276.78
2023-04-21T04:39:09.563Z,100268.78
2023-04-21T04:43:11.769Z,100252.38
2023-04-21T04:47:13.422Z,100255.88
2023-04-21T04:51:15.180Z,100263.00
2023-04-21T04:55:16.875Z,100269.53
2023-04-21T04:59:19.019Z,100269.34
2023-04-21T05:03:23.813Z,100270.31
2023-04-21T05:07:25.790Z,100253.34
2023-04-21T05:11:27.333Z,100264.69
2023-04-21T05:15:28.992Z,100265.66
2023-04-21T05:19:30.782Z,100282.16
2023-04-21T05:23:32.349Z,100280.34
2023-04-21T05:27:34.196Z,100288.13
2023-04-21T05:31:35.867Z,100286.16
2023-04-21T05:35:38.188Z,100290.13
2023-04-21T05:39:39.855Z,100292.31
2023-04-21T05:43:41.413Z,100292.22
2023-04-21T05:47:42.998Z,100299.38
2023-04-21T05:51:44.709Z,100300.09
2023-04-21T05:55:46.284Z,100295.16
2023-04-21T05:59:47.926Z,100306.13
2023-04-21T06:03:50.344Z,100308.16
2023-04-21T06:07:52.071Z,100307.00
2023-04-21T06:11:53.692Z,100314.63
2023-04-21T06:15:55.394Z,100309.56
2023-04-21T06:19:57.201Z,100314.00
2023-04-21T06:23:58.763Z,100306.97
2023-04-21T06:28:00.569Z,100319.69
2023-04-21T06:32:02.166Z,100302.34
2023-04-21T06:36:04.077Z,100310.72
2023-04-21T06:40:06.132Z,100315.28
2023-04-21T06:44:07.673Z,100325.81
2023-04-21T06:48:09.280Z,100319.72
2023-04-21T06:52:11.670Z,100313.00
2023-04-21T06:56:13.237Z,100310.41
2023-04-21T07:00:15.291Z,100303.69
2023-04-21T07:04:17.384Z,100295.34
2023-04-21T07:08:19.084Z,100302.09
2023-04-21T07:12:20.704Z,100319.59
2023-04-21T07:16:22.354Z,100306.97
2023-04-21T07:20:24.134Z,100293.88
2023-04-21T07:24:25.800Z,100290.56
2023-04-21T07:28:27.388Z,100281.91
2023-04-21T07:32:29.162Z,100276.78
2023-04-21T07:36:31.630Z,100288.78
2023-04-21T07:40:33.700Z,100294.63
2023-04-21T07:44:35.374Z,100296.09
2023-04-21T07:48:36.963Z,100290.28
2023-04-21T07:52:38.631Z,100295.47
2023-04-21T07:56:40.246Z,100279.50
2023-04-21T08:00:41.978Z,100271.81
2023-04-21T08:04:43.886Z,100262.94
2023-04-21T08:20:10.085Z,100260.22
2023-04-21T08:24:12.272Z,100267.03
2023-04-21T08:28:15.565Z,100262.31
2023-04-21T08:32:23.337Z,100256.91
2023-04-21T08:36:29.416Z,100249.53
2023-04-21T08:40:34.297Z,100245.53
2023-04-21T08:44:35.852Z,100245.53
2023-04-21T08:48:38.591Z,100250.31
2023-04-21T08:52:40.244Z,100243.34
2023-04-21T08:56:41.855Z,100247.81
2023-04-21T09:00:43.471Z,100233.09
2023-04-21T09:04:47.088Z,100222.03
2023-04-21T09:08:58.078Z,100208.13
2023-04-21T09:13:07.799Z,100203.44
2023-04-21T09:17:09.569Z,100196.88
2023-04-21T09:21:19.641Z,100190.47
2023-04-21T09:25:22.089Z,100187.41
2023-04-21T09:29:24.290Z,100185.06
2023-04-21T09:33:32.371Z,100192.13
2023-04-21T09:37:36.213Z,100187.50
2023-04-21T09:41:37.728Z,100178.59
2023-04-21T09:45:40.815Z,100181.69
2023-04-21T09:49:44.984Z,100181.22
2023-04-21T09:53:49.552Z,100181.72
2023-04-21T09:57:52.613Z,100166.84
2023-04-21T10:01:56.383Z,100160.28
2023-04-21T10:05:58.385Z,100152.94
2023-04-21T10:10:01.371Z,100151.72
2023-04-21T10:14:04.181Z,100140.91
2023-04-21T10:18:21.143Z,100134.56
2023-04-21T10:22:34.162Z,100129.72
2023-04-21T10:26:36.365Z,100125.72
2023-04-21T10:30:37.915Z,100122.59
2023-04-21T10:34:39.972Z,100122.09
2023-04-21T10:38:43.964Z,100119.00
2023-04-21T10:42:45.528Z,100114.16
2023-04-21T10:46:49.204Z,100106.66
2023-04-21T10:50:51.591Z,100084.53
2023-04-21T10:54:56.011Z,100078.88
2023-04-21T10:59:00.358Z,100075.59
2023-04-21T11:03:04.187Z,100061.16
2023-04-21T11:07:19.215Z,100066.53
2023-04-21T11:11:24.468Z,100068.44
2023-04-21T11:15:26.271Z,100063.50
2023-04-21T11:19:28.031Z,100054.22
2023-04-21T11:23:29.632Z,100050.19
2023-04-21T11:27:31.256Z,100040.84
2023-04-21T11:31:33.522Z,100030.66
2023-04-21T11:35:40.202Z,100026.50
2023-04-21T11:39:42.849Z,100009.41
2023-04-21T11:43:46.216Z,100006.97
2023-04-21T11:47:48.198Z,100014.03
2023-04-21T11:51:50.238Z,100010.69
2023-04-21T11:55:51.836Z,100012.53
2023-04-21T11:59:53.698Z,100007.47
2023-04-21T12:03:56.412Z,100007.59
2023-04-21T12:07:58.211Z,100015.47
2023-04-21T12:12:04.492Z,100015.56
2023-04-21T12:16:06.476Z,100011.34
2023-04-21T12:20:08.660Z,99995.91
2023-04-21T12:24:10.274Z,99992.50
2023-04-21T12:28:11.831Z,99989.16
2023-04-21T12:32:13.454Z,99978.84
2023-04-21T12:36:15.302Z,99980.59
2023-04-21T12:40:17.273Z,99971.16
2023-04-21T12:44:18.856Z,99963.38
2023-04-21T12:48:20.605Z,99970.25
2023-04-21T12:52:22.288Z,99966.78
2023-04-21T12:56:23.882Z,99963.31
2023-04-21T13:00:25.443Z,99963.31
2023-04-21T13:04:27.325Z,99945.94
2023-04-21T13:08:29.072Z,99943.25
2023-04-21T13:12:30.680Z,99949.28
2023-04-21T13:16:32.335Z,99957.06
2023-04-21T13:20:33.907Z,99946.69
2023-04-21T13:24:35.463Z,99948.41
2023-04-21T13:28:37.455Z,99943.09
2023-04-21T13:32:40.047Z,99940.44
2023-04-21T13:36:42.149Z,99925.66
2023-04-21T13:40:45.339Z,99928.19
2023-04-21T13:44:47.043Z,99918.63
2023-04-21T13:48:50.413Z,99922.09
2023-04-21T13:52:52.528Z,99915.88
2023-04-21T13:56:54.477Z,99911.44
2023-04-21T14:00:56.729Z,99898.38
2023-04-21T14:04:58.417Z,99898.31
2023-04-21T14:09:00.664Z,99894.66
2023-04-21T14:13:02.436Z,99879.84
2023-04-21T14:17:04.169Z,99869.28
2023-04-21T14:21:05.866Z,99870.00
2023-04-21T14:25:08.072Z,99854.38
2023-04-21T14:29:09.795Z,99839.47
2023-04-21T14:33:11.535Z,99841.81
2023-04-21T14:37:13.227Z,99838.97
2023-04-21T14:41:14.903Z,99836.31
2023-04-21T14:45:16.545Z,99831.91
2023-04-21T14:49:18.153Z,99832.69
2023-04-21T14:53:19.694Z,99828.19
2023-04-21T14:57:21.935Z,99823.59
2023-04-21T15:01:26.120Z,99808.72
2023-04-21T15:05:28.072Z,99812.00
2023-04-21T15:09:29.752Z,99799.81
2023-04-21T15:13:32.700Z,99799.69
2023-04-21T15:17:34.266Z,99798.72
2023-04-21T15:21:35.812Z,99797.72
2023-04-21T15:25:39.807Z,99795.88
2023-04-21T15:29:41.821Z,99785.44
2023-04-21T15:33:43.385Z,99792.34
2023-04-21T15:37:45.029Z,99797.53
2023-04-21T15:41:47.142Z,99788.03
2023-04-21T15:45:48.720Z,99784.72
2023-04-21T15:49:50.279Z,99798.97
2023-04-21T15:53:51.888Z,99790.34
2023-04-21T15:57:54.156Z,99793.78
2023-04-21T16:01:58.515Z,99808.09
2023-04-21T16:06:00.480Z,99802.34
2023-04-21T16:10:02.285Z,99802.56
2023-04-21T16:14:03.925Z,99805.38
2023-04-21T16:18:06.711Z,99876.56
2023-04-21T16:22:09.380Z,99906.09
2023-04-21T16:26:10.960Z,99904.59
2023-04-21T16:30:12.703Z,99903.81
2023-04-21T16:34:16.232Z,99905.50
2023-04-21T16:38:18.308Z,99926.16
2023-04-21T16:42:19.877Z,99898.50
2023-04-21T16:46:21.974Z,99873.34
2023-04-21T16:50:23.821Z,99841.28
2023-04-21T16:54:25.513Z,99825.72
2023-04-21T16:58:28.566Z,99797.28
2023-04-21T17:02:30.271Z,99781.84
2023-04-21T17:06:31.947Z,99770.63
2023-04-21T17:10:33.599Z,99765.63
2023-04-21T17:14:35.918Z,99770.06
2023-04-21T17:18:37.723Z,99808.91
2023-04-21T17:22:40.175Z,99808.88
2023-04-21T17:26:41.845Z,99807.97
2023-04-21T17:30:43.426Z,99812.31
2023-04-21T17:34:44.988Z,99819.25
2023-04-21T17:38:46.798Z,99814.06
2023-04-21T17:42:48.431Z,99777.81
2023-04-21T17:46:50.140Z,99756.28
2023-04-21T17:50:51.868Z,99761.44
2023-04-21T17:54:53.569Z,99774.34
2023-04-21T17:58:55.693Z,99789.00
2023-04-21T18:02:57.411Z,99777.78
2023-04-21T18:06:59.249Z,99783.81
2023-04-21T18:11:00.898Z,99788.94
2023-04-21T18:15:02.396Z,99795.72
2023-04-21T18:19:04.684Z,99798.25
2023-04-21T18:23:06.307Z,99797.31
2023-04-21T18:27:07.974Z,99814.47
2023-04-21T18:31:09.750Z,99835.00
2023-04-21T18:35:11.380Z,99856.16
2023-04-21T18:39:13.096Z,99859.34
2023-04-21T18:43:14.761Z,99854.03
2023-04-21T18:47:16.385Z,99858.31
2023-04-21T18:51:18.094Z,99859.16
2023-04-21T18:55:19.870Z,99867.78
2023-04-21T18:59:22.216Z,99878.94
2023-04-21T19:03:25.199Z,99878.09
2023-04-21T19:07:26.994Z,99877.22
2023-04-21T19:11:28.749Z,99875.50
2023-04-21T19:15:30.439Z,99885.81
2023-04-21T19:19:32.006Z,99884.91
2023-04-21T19:23:33.531Z,99881.44
2023-04-21T19:27:35.890Z,99885.69
2023-04-21T19:31:38.398Z,99874.50
2023-04-21T19:35:40.086Z,99868.47
2023-04-21T19:39:41.702Z,99883.88
2023-04-21T19:43:43.261Z,99888.13
2023-04-21T19:47:44.843Z,99887.31
2023-04-21T19:51:46.456Z,99874.41
2023-04-21T19:55:51.834Z,99873.53
2023-04-21T19:59:54.172Z,99885.63
2023-04-21T20:03:56.166Z,99878.72
2023-04-21T20:07:58.019Z,99880.53
2023-04-21T20:11:59.558Z,99880.56
2023-04-21T20:16:02.000Z,99880.53
2023-04-21T20:20:05.347Z,99877.94
2023-04-21T20:24:08.729Z,99880.53
2023-04-21T20:28:10.499Z,99883.97
2023-04-21T20:32:12.084Z,99880.50
2023-04-21T20:36:13.598Z,99878.88
2023-04-21T20:40:15.751Z,99890.88
2023-04-21T20:44:18.214Z,99887.41
2023-04-21T20:48:19.872Z,99890.00
2023-04-21T20:52:21.930Z,99881.38
2023-04-21T20:56:23.902Z,99886.44
2023-04-21T21:00:26.301Z,99878.72
2023-04-21T21:04:28.003Z,99890.75
2023-04-21T21:08:29.616Z,99887.31
2023-04-21T21:12:31.302Z,99886.44
2023-04-21T21:16:33.069Z,99881.28
2023-04-21T21:20:34.784Z,99886.44
2023-04-21T21:24:36.495Z,99886.47
2023-04-21T21:28:38.137Z,99900.19
2023-04-21T21:32:39.763Z,99900.19
2023-04-21T21:36:41.552Z,99895.00
2023-04-21T21:40:43.148Z,99896.69
2023-04-21T21:44:44.620Z,99894.84
2023-04-21T21:48:46.434Z,99898.03
2023-04-21T21:52:48.020Z,99903.97
2023-04-21T21:56:49.704Z,99898.75
2023-04-21T22:00:52.072Z,99900.28
2023-04-21T22:04:55.207Z,99909.69
2023-04-21T22:08:56.764Z,99907.84
2023-04-21T22:12:58.354Z,99907.06
2023-04-21T22:17:00.547Z,99907.03
2023-04-21T22:21:02.206Z,99905.31
2023-04-21T22:25:04.472Z,99912.16
2023-04-21T22:29:06.053Z,99914.66
2023-04-21T22:33:07.827Z,99920.59
2023-04-21T22:37:09.429Z,99923.09
2023-04-21T22:41:11.370Z,99908.41
2023-04-21T22:45:12.940Z,99906.66
2023-04-21T22:49:14.549Z,99913.59
2023-04-21T22:53:16.199Z,99913.66
2023-04-21T22:57:18.459Z,99915.22
2023-04-21T23:01:20.198Z,99911.84
2023-04-21T23:05:21.884Z,99910.09
2023-04-21T23:09:23.650Z,99898.03
2023-04-21T23:13:25.681Z,99892.81
2023-04-21T23:17:27.257Z,99885.00
2023-04-21T23:21:28.839Z,99881.56
2023-04-21T23:25:30.626Z,99887.53
2023-04-21T23:29:32.239Z,99884.94
2023-04-21T23:33:33.775Z,99877.25
2023-04-21T23:37:35.481Z,99883.28
2023-04-21T23:41:37.384Z,99878.22
2023-04-21T23:45:39.047Z,99876.47
2023-04-21T23:49:40.838Z,99887.66
2023-04-21T23:53:42.532Z,99879.13
2023-04-21T23:57:45.104Z,99874.88
